Time;durP1;ratioP1;P1;durP2;ratioP2;P2;SDS_P1;SDS_P2;PMS_P1;PMS_P2;Temp;Humidity;BMP_temperature;BMP_pressure;BME280_temperature;BME280_humidity;BME280_pressure;Samples;Min_cycle;Max_cycle;Signal;HPM_P1;HPM_P2
2021/11/04 00:01:33;;;;;;;9.63;4.07;;;;;;;10.13;100.00;99693.34;5048872;28;20115;-64
2021/11/04 00:03:59;;;;;;;6.75;3.22;;;;;;;10.15;100.00;99699.91;5053066;28;20036;-65
2021/11/04 00:06:24;;;;;;;12.00;3.90;;;;;;;10.15;100.00;99707.97;5052113;28;20402;-63
2021/11/04 00:08:50;;;;;;;13.50;4.05;;;;;;;10.20;100.00;99709.53;5052541;28;20037;-64
2021/11/04 00:11:15;;;;;;;8.15;3.88;;;;;;;10.16;100.00;99706.84;5044099;28;20043;-64
2021/11/04 00:13:41;;;;;;;10.50;3.40;;;;;;;10.18;100.00;99704.50;5051890;28;20076;-63
2021/11/04 00:16:09;;;;;;;7.88;3.80;;;;;;;10.03;100.00;99697.47;5052731;28;20037;-63
2021/11/04 00:18:36;;;;;;;6.70;3.20;;;;;;;10.10;100.00;99688.72;5052051;28;20044;-63
2021/11/04 00:21:03;;;;;;;9.15;3.35;;;;;;;10.11;100.00;99693.72;5045782;28;20029;-63
2021/11/04 00:23:28;;;;;;;13.65;4.32;;;;;;;10.14;100.00;99695.66;5052649;28;20478;-64
2021/11/04 00:25:54;;;;;;;8.15;3.50;;;;;;;10.15;100.00;99699.13;5052604;28;20029;-64
2021/11/04 00:28:19;;;;;;;8.48;3.63;;;;;;;10.12;100.00;99697.97;5025763;28;20052;-63
2021/11/04 00:30:45;;;;;;;11.43;4.00;;;;;;;10.13;100.00;99704.09;5047179;28;20045;-64
2021/11/04 00:33:11;;;;;;;9.57;3.60;;;;;;;10.06;100.00;99699.44;5048778;28;20025;-63
2021/11/04 00:35:36;;;;;;;10.30;3.25;;;;;;;10.11;100.00;99701.78;5050537;28;20040;-63
2021/11/04 00:38:02;;;;;;;12.35;4.22;;;;;;;10.16;100.00;99697.97;5030680;28;20029;-63
2021/11/04 00:40:28;;;;;;;10.25;3.63;;;;;;;10.11;100.00;99691.03;5048677;28;20041;-64
2021/11/04 00:42:54;;;;;;;10.32;3.90;;;;;;;10.09;100.00;99687.13;5058186;28;20060;-64
2021/11/04 00:45:21;;;;;;;9.95;3.70;;;;;;;10.14;100.00;99690.28;5057355;28;20119;-61
2021/11/04 00:47:48;;;;;;;9.88;3.72;;;;;;;10.12;100.00;99683.72;5056120;28;20075;-65
2021/11/04 00:50:15;;;;;;;16.10;4.60;;;;;;;10.10;100.00;99689.50;5056401;28;20096;-64
2021/11/04 00:52:40;;;;;;;9.50;3.90;;;;;;;10.06;100.00;99691.34;5057756;28;20093;-63
2021/11/04 00:55:08;;;;;;;9.35;3.90;;;;;;;10.14;100.00;99695.66;5051410;28;20051;-63
2021/11/04 00:57:34;;;;;;;7.68;3.67;;;;;;;10.12;100.00;99692.59;5054705;28;20025;-64
2021/11/04 00:59:59;;;;;;;10.35;3.78;;;;;;;10.21;100.00;99695.72;5051818;28;20021;-63
2021/11/04 01:02:25;;;;;;;7.75;3.63;;;;;;;10.12;100.00;99691.81;5052142;28;20037;-62
2021/11/04 01:04:51;;;;;;;10.65;4.28;;;;;;;10.14;100.00;99687.59;5045877;28;20402;-63
2021/11/04 01:07:17;;;;;;;9.98;4.95;;;;;;;10.10;100.00;99676.03;5046901;28;20041;-63
2021/11/04 01:09:42;;;;;;;9.45;3.67;;;;;;;10.19;100.00;99673.00;5053656;28;20032;-61
2021/11/04 01:12:08;;;;;;;10.40;3.95;;;;;;;10.14;100.00;99678.75;5054613;28;20059;-64
2021/11/04 01:14:34;;;;;;;10.18;4.20;;;;;;;10.17;100.00;99680.69;5055290;28;20040;-63
2021/11/04 01:16:59;;;;;;;9.93;3.53;;;;;;;10.08;100.00;99681.00;5058395;28;20026;-64
2021/11/04 01:19:25;;;;;;;15.43;4.50;;;;;;;10.12;100.00;99672.97;5054990;28;20041;-63
2021/11/04 01:21:51;;;;;;;9.38;4.15;;;;;;;10.12;100.00;99676.44;5055028;28;20037;-62
2021/11/04 01:24:16;;;;;;;8.93;3.45;;;;;;;10.18;100.00;99680.28;5058993;28;20037;-64
2021/11/04 01:26:42;;;;;;;7.80;3.97;;;;;;;10.13;100.00;99672.59;5057788;28;20029;-64
2021/11/04 01:29:07;;;;;;;12.88;3.80;;;;;;;10.07;100.00;99668.69;5053570;28;20044;-64
2021/11/04 01:31:33;;;;;;;9.60;3.70;;;;;;;10.10;100.00;99661.81;5041836;28;20037;-62
2021/11/04 01:33:59;;;;;;;13.38;3.92;;;;;;;10.08;100.00;99664.84;5052482;28;20044;-65
2021/11/04 01:36:24;;;;;;;9.77;3.50;;;;;;;10.08;100.00;99667.56;5033666;28;20037;-64
2021/11/04 01:38:52;;;;;;;13.77;3.85;;;;;;;10.04;100.00;99674.81;5046861;28;20029;-64
2021/11/04 01:41:18;;;;;;;12.20;3.58;;;;;;;10.04;100.00;99670.19;5047448;28;20058;-63
2021/11/04 01:43:44;;;;;;;12.18;3.90;;;;;;;9.99;100.00;99673.25;5053122;28;20037;-63
2021/11/04 01:46:12;;;;;;;11.63;4.32;;;;;;;10.04;100.00;99667.50;5052122;28;20025;-64
2021/11/04 01:48:38;;;;;;;8.20;3.05;;;;;;;10.00;100.00;99664.06;5046534;28;20134;-60
2021/11/04 01:51:04;;;;;;;9.40;3.45;;;;;;;10.00;100.00;99661.34;5052779;28;20394;-63
2021/11/04 01:53:29;;;;;;;7.55;3.33;;;;;;;10.06;100.00;99671.75;5032657;28;20038;-62
2021/11/04 01:55:55;;;;;;;12.27;3.67;;;;;;;10.04;100.00;99675.56;5036007;28;20606;-62
2021/11/04 01:58:21;;;;;;;10.20;3.35;;;;;;;10.06;100.00;99669.84;5048785;28;20522;-61
2021/11/04 02:00:47;;;;;;;10.50;4.18;;;;;;;10.13;100.00;99666.44;5045997;28;20029;-62
2021/11/04 02:03:31;;;;;;;8.25;3.28;;;;;;;10.08;100.00;99666.78;5051176;28;20037;-61
2021/11/04 02:06:38;;;;;;;7.97;3.38;;;;;;;10.09;100.00;99666.38;5047175;28;20463;-62
2021/11/04 02:09:15;;;;;;;9.68;3.08;;;;;;;10.06;100.00;99667.16;5047983;28;20591;-62
2021/11/04 02:11:47;;;;;;;9.98;3.90;;;;;;;10.04;100.00;99669.44;5048004;28;20044;-62
2021/11/04 02:14:18;;;;;;;9.93;3.60;;;;;;;10.04;100.00;99664.06;5050986;28;20044;-62
2021/11/04 02:16:45;;;;;;;;;;;;;;;9.98;100.00;99671.72;5051350;28;20029;-62
2021/11/04 02:19:40;;;;;;;9.55;3.58;;;;;;;9.96;100.00;99667.84;5049479;28;19912;-62
2021/11/04 02:22:13;;;;;;;6.65;3.05;;;;;;;10.09;100.00;99666.38;5044107;28;20048;-64
2021/11/04 02:24:47;;;;;;;9.18;3.47;;;;;;;10.08;100.00;99664.84;5054842;28;20041;-63
2021/11/04 02:27:14;;;;;;;9.32;4.05;;;;;;;10.04;100.00;99661.38;5046540;28;20116;-63
2021/11/04 02:29:42;;;;;;;11.30;3.38;;;;;;;10.01;100.00;99652.13;5045438;28;20047;-63
2021/11/04 02:32:09;;;;;;;11.43;4.40;;;;;;;9.99;100.00;99657.13;5053332;28;20029;-63
2021/11/04 02:34:38;;;;;;;10.73;3.72;;;;;;;9.96;100.00;99649.03;5051089;28;20032;-64
2021/11/04 02:37:05;;;;;;;7.88;3.50;;;;;;;10.04;100.00;99647.94;5047083;28;20028;-64
2021/11/04 02:39:32;;;;;;;8.07;3.90;;;;;;;9.95;100.00;99645.56;5034371;28;20041;-63
2021/11/04 02:41:58;;;;;;;11.65;4.28;;;;;;;9.99;100.00;99642.88;5051703;28;20487;-64
2021/11/04 02:44:25;;;;;;;11.95;4.35;;;;;;;9.89;100.00;99641.69;5053249;28;20071;-63
2021/11/04 02:46:56;;;;;;;10.25;3.63;;;;;;;9.84;100.00;99633.19;5048839;28;20037;-62
2021/11/04 02:49:25;;;;;;;10.95;4.47;;;;;;;9.86;100.00;99634.38;5049122;28;20045;-62
2021/11/04 02:51:51;;;;;;;14.13;4.07;;;;;;;9.97;100.00;99627.13;5047276;28;20057;-62
2021/11/04 02:54:17;;;;;;;11.02;3.92;;;;;;;9.96;100.00;99633.66;5044931;28;20033;-63
2021/11/04 02:56:47;;;;;;;8.80;3.70;;;;;;;10.01;100.00;99627.91;5051654;28;20033;-62
2021/11/04 02:59:14;;;;;;;11.35;3.63;;;;;;;9.99;100.00;99629.44;5046602;28;20150;-60
2021/11/04 03:01:45;;;;;;;7.70;3.88;;;;;;;9.93;100.00;99626.34;5046048;28;20068;-62
2021/11/04 03:04:14;;;;;;;10.70;3.90;;;;;;;9.93;100.00;99631.72;5037355;28;20475;-62
2021/11/04 03:06:39;;;;;;;8.95;4.50;;;;;;;9.97;100.00;99629.81;5051718;28;20529;-62
2021/11/04 03:09:05;;;;;;;10.32;4.43;;;;;;;9.97;100.00;99632.50;5033689;28;20033;-61
2021/11/04 03:11:30;;;;;;;11.85;4.22;;;;;;;9.98;100.00;99627.91;5044165;28;20074;-63
2021/11/04 03:13:56;;;;;;;8.68;3.78;;;;;;;9.97;100.00;99645.19;5049008;28;20171;-63
2021/11/04 03:16:23;;;;;;;9.23;3.97;;;;;;;9.99;100.00;99645.56;5039092;28;20399;-63
2021/11/04 03:18:50;;;;;;;10.43;4.03;;;;;;;9.95;100.00;99644.78;5043189;28;20033;-63
2021/11/04 03:21:17;;;;;;;11.57;3.88;;;;;;;9.91;100.00;99647.44;5047792;28;20471;-63
2021/11/04 03:23:42;;;;;;;10.57;4.05;;;;;;;9.91;100.00;99642.06;5049060;28;20036;-64
2021/11/04 03:26:10;;;;;;;11.15;4.03;;;;;;;9.96;100.00;99646.34;5045910;28;20040;-62
2021/11/04 03:28:36;;;;;;;8.73;3.78;;;;;;;9.91;100.00;99642.06;5048321;28;20495;-62
2021/11/04 03:31:02;;;;;;;11.38;4.13;;;;;;;9.93;100.00;99636.31;5048044;28;20044;-63
2021/11/04 03:33:30;;;;;;;11.90;4.15;;;;;;;9.90;100.00;99629.78;5048419;28;20128;-63
2021/11/04 03:35:57;;;;;;;9.05;3.35;;;;;;;9.93;100.00;99633.63;5041878;28;20035;-62
2021/11/04 03:38:24;;;;;;;9.18;3.35;;;;;;;9.94;100.00;99637.88;5048087;28;20041;-63
2021/11/04 03:40:51;;;;;;;9.50;3.90;;;;;;;9.87;100.00;99637.84;5047537;28;20025;-63
2021/11/04 03:43:16;;;;;;;10.65;4.15;;;;;;;9.85;100.00;99646.25;5048612;28;20036;-63
2021/11/04 03:45:44;;;;;;;10.02;3.63;;;;;;;9.79;100.00;99652.38;5046202;28;20100;-63
2021/11/04 03:48:10;;;;;;;17.40;3.40;;;;;;;9.85;100.00;99648.94;5023656;28;20568;-62
2021/11/04 03:50:37;;;;;;;10.18;3.42;;;;;;;9.85;100.00;99648.94;5046948;28;20473;-64
2021/11/04 03:53:05;;;;;;;10.38;3.25;;;;;;;9.84;100.00;99644.72;5040889;28;20038;-62
2021/11/04 03:55:32;;;;;;;9.05;3.58;;;;;;;9.82;100.00;99643.56;5050130;28;20052;-64
2021/11/04 03:57:59;;;;;;;10.80;3.60;;;;;;;9.86;100.00;99641.66;5050000;28;20483;-64
2021/11/04 04:00:24;;;;;;;10.35;3.45;;;;;;;9.82;100.00;99646.25;5048205;28;20033;-64
2021/11/04 04:02:50;;;;;;;8.73;3.90;;;;;;;9.87;100.00;99637.84;5047542;28;21800;-62
2021/11/04 04:05:25;;;;;;;8.18;3.65;;;;;;;9.91;100.00;99644.75;5048359;28;20021;-64
2021/11/04 04:07:50;;;;;;;8.60;3.38;;;;;;;9.98;100.00;99646.72;5054637;28;20068;-63
2021/11/04 04:10:16;;;;;;;9.32;3.42;;;;;;;9.88;100.00;99642.84;5052107;28;20063;-62
2021/11/04 04:12:41;;;;;;;7.55;3.05;;;;;;;9.89;100.00;99649.00;5052800;28;20033;-64
2021/11/04 04:15:07;;;;;;;9.18;3.92;;;;;;;9.87;100.00;99648.59;5050211;28;20483;-63
2021/11/04 04:17:33;;;;;;;5.80;2.85;;;;;;;9.87;100.00;99637.84;5039667;28;20395;-64
2021/11/04 04:19:58;;;;;;;11.63;4.05;;;;;;;9.80;100.00;99635.09;5052333;28;20036;-62
2021/11/04 04:22:24;;;;;;;9.00;3.33;;;;;;;9.88;100.00;99634.00;5053339;28;20114;-64
2021/11/04 04:24:49;;;;;;;6.72;3.30;;;;;;;9.92;100.00;99632.09;5050340;28;20036;-64
2021/11/04 04:27:15;;;;;;;7.65;3.10;;;;;;;9.86;100.00;99626.31;5050082;28;20043;-64
2021/11/04 04:29:40;;;;;;;6.85;3.47;;;;;;;9.80;100.00;99621.63;5051504;28;20139;-64
2021/11/04 04:32:06;;;;;;;8.25;2.88;;;;;;;9.84;100.00;99617.06;5051187;28;20067;-64
2021/11/04 04:34:31;;;;;;;8.05;2.85;;;;;;;9.81;100.00;99634.69;5052512;28;20068;-64
2021/11/04 04:36:57;;;;;;;5.57;2.63;;;;;;;9.80;100.00;99635.09;5047545;28;20532;-64
2021/11/04 04:39:22;;;;;;;6.70;2.70;;;;;;;9.81;100.00;99631.25;5052016;28;20479;-62
2021/11/04 04:41:48;;;;;;;7.63;3.30;;;;;;;9.79;100.00;99625.50;5051615;28;20040;-62
2021/11/04 04:44:13;;;;;;;6.55;2.85;;;;;;;9.82;100.00;99627.41;5052697;28;20029;-62
2021/11/04 04:46:39;;;;;;;8.52;3.22;;;;;;;9.80;100.00;99621.63;5045297;28;20078;-62
2021/11/04 04:49:04;;;;;;;9.93;2.92;;;;;;;9.75;100.00;99622.78;5045297;28;20473;-63
2021/11/04 04:51:30;;;;;;;7.15;3.40;;;;;;;9.81;100.00;99621.25;5045931;28;20056;-63
2021/11/04 04:53:56;;;;;;;8.63;3.22;;;;;;;9.81;100.00;99625.88;5049967;28;20108;-63
2021/11/04 04:56:21;;;;;;;8.75;3.22;;;;;;;9.82;100.00;99627.41;5053822;28;20112;-62
2021/11/04 04:58:47;;;;;;;10.07;3.88;;;;;;;9.82;100.00;99619.34;5052916;28;20040;-62
2021/11/04 05:01:12;;;;;;;11.43;3.97;;;;;;;9.82;100.00;99622.81;5043438;28;20116;-62
2021/11/04 05:03:38;;;;;;;9.98;3.58;;;;;;;9.81;100.00;99620.50;5050234;28;20094;-62
2021/11/04 05:06:03;;;;;;;9.43;3.35;;;;;;;9.78;100.00;99624.72;5053655;28;20060;-62
2021/11/04 05:08:29;;;;;;;13.38;3.83;;;;;;;9.80;100.00;99632.41;5052248;28;20434;-62
2021/11/04 05:10:54;;;;;;;6.53;2.92;;;;;;;9.78;100.00;99624.72;5052852;28;20067;-62
2021/11/04 05:13:20;;;;;;;8.07;3.28;;;;;;;9.76;100.00;99627.00;5050043;28;20025;-62
2021/11/04 05:15:45;;;;;;;6.75;3.22;;;;;;;9.70;100.00;99630.41;5047020;28;20060;-62
2021/11/04 05:18:14;;;;;;;7.35;3.13;;;;;;;9.72;100.00;99636.97;5050666;28;20051;-62
2021/11/04 05:20:39;;;;;;;9.00;3.40;;;;;;;9.82;100.00;99635.47;5050467;28;20040;-62
2021/11/04 05:23:06;;;;;;;7.50;3.70;;;;;;;9.74;100.00;99637.34;5049666;28;20082;-62
2021/11/04 05:25:31;;;;;;;8.05;3.33;;;;;;;9.74;100.00;99633.88;5035953;28;20117;-62
2021/11/04 05:27:57;;;;;;;6.65;2.90;;;;;;;9.69;100.00;99642.31;5053918;28;20135;-63
2021/11/04 05:30:23;;;;;;;6.38;3.35;;;;;;;9.66;100.00;99640.34;5046811;28;20057;-62
2021/11/04 05:32:49;;;;;;;7.25;3.00;;;;;;;9.73;100.00;99638.50;5050688;28;20056;-62
2021/11/04 05:35:17;;;;;;;7.28;3.22;;;;;;;9.74;100.00;99647.34;5053353;28;20029;-62
2021/11/04 05:37:43;;;;;;;6.35;2.38;;;;;;;9.79;100.00;99644.31;5047193;28;20046;-62
2021/11/04 05:40:09;;;;;;;6.53;2.22;;;;;;;9.75;100.00;99652.34;5049797;28;20655;-63
2021/11/04 05:42:34;;;;;;;4.30;1.98;;;;;;;9.69;100.00;99663.81;5039852;28;20048;-61
2021/11/04 05:45:00;;;;;;;4.53;2.40;;;;;;;9.76;100.00;99659.25;5047251;28;20036;-62
2021/11/04 05:47:26;;;;;;;5.10;2.10;;;;;;;9.73;100.00;99660.03;5052377;28;20427;-61
2021/11/04 05:49:51;;;;;;;3.10;2.10;;;;;;;9.75;100.00;99662.31;5050038;28;20487;-62
2021/11/04 05:52:17;;;;;;;5.28;2.40;;;;;;;9.69;100.00;99658.44;5045618;28;20021;-62
2021/11/04 05:54:42;;;;;;;6.40;2.88;;;;;;;9.76;100.00;99658.47;5049963;28;20044;-62
2021/11/04 05:57:08;;;;;;;5.88;2.42;;;;;;;9.70;100.00;99670.72;5043322;28;20063;-63
2021/11/04 05:59:33;;;;;;;5.07;2.22;;;;;;;9.72;100.00;99671.13;5051284;28;20457;-62
2021/11/04 06:01:59;;;;;;;4.43;2.28;;;;;;;9.72;100.00;99671.13;5044841;28;20127;-62
2021/11/04 06:04:25;;;;;;;5.20;2.40;;;;;;;9.70;100.00;99668.03;5020886;28;20323;-62
2021/11/04 06:06:51;;;;;;;5.68;2.63;;;;;;;9.67;100.00;99674.16;5046896;28;20055;-62
2021/11/04 06:09:16;;;;;;;5.53;2.70;;;;;;;9.66;100.00;99675.28;5041487;28;20032;-62
2021/11/04 06:11:42;;;;;;;4.78;1.92;;;;;;;9.65;100.00;99676.47;5047184;28;20025;-62
2021/11/04 06:14:08;;;;;;;7.22;2.65;;;;;;;9.71;100.00;99683.81;5045404;28;20103;-62
2021/11/04 06:16:33;;;;;;;9.32;2.45;;;;;;;9.69;100.00;99682.63;5050988;28;20025;-61
2021/11/04 06:18:59;;;;;;;5.10;2.15;;;;;;;9.66;100.00;99686.81;5051337;28;20029;-62
2021/11/04 06:21:25;;;;;;;3.85;2.20;;;;;;;9.71;100.00;99686.50;5045731;28;20079;-62
2021/11/04 06:23:51;;;;;;;9.32;2.50;;;;;;;9.76;100.00;99685.38;5044316;28;20029;-62
2021/11/04 06:26:17;;;;;;;5.45;2.65;;;;;;;9.69;100.00;99685.31;5047745;28;20107;-62
2021/11/04 06:28:43;;;;;;;4.78;2.33;;;;;;;9.67;100.00;99687.59;5050062;28;20033;-62
2021/11/04 06:31:09;;;;;;;7.03;2.63;;;;;;;9.66;100.00;99683.34;5044307;28;20501;-62
2021/11/04 06:33:34;;;;;;;4.35;1.90;;;;;;;9.67;100.00;99688.38;5049913;28;20112;-61
2021/11/04 06:36:00;;;;;;;5.13;2.25;;;;;;;9.66;100.00;99700.28;5022562;28;20403;-62
2021/11/04 06:38:25;;;;;;;6.35;3.05;;;;;;;9.68;100.00;99691.81;5048693;28;20025;-61
2021/11/04 06:40:51;;;;;;;5.15;2.15;;;;;;;9.68;100.00;99691.81;5042977;28;20029;-62
2021/11/04 06:43:18;;;;;;;5.75;2.03;;;;;;;9.63;100.00;99686.81;5051322;28;20610;-62
2021/11/04 06:45:48;;;;;;;7.55;2.20;;;;;;;9.70;100.00;99684.16;5042804;28;20094;-62
2021/11/04 06:48:22;;;;;;;3.92;1.77;;;;;;;9.70;100.00;99681.47;5040396;28;20489;-62
2021/11/04 06:50:50;;;;;;;4.10;2.22;;;;;;;9.72;100.00;99685.34;5038315;28;20037;-63
2021/11/04 06:53:20;;;;;;;4.22;1.92;;;;;;;9.73;100.00;99676.16;5052321;28;20512;-62
2021/11/04 06:55:48;;;;;;;3.33;1.80;;;;;;;9.68;100.00;99673.78;5041106;28;20028;-62
2021/11/04 06:58:15;;;;;;;3.63;1.95;;;;;;;9.66;100.00;99670.69;5040068;28;20033;-62
2021/11/04 07:00:46;;;;;;;4.80;1.67;;;;;;;9.74;100.00;99677.69;5044950;28;20148;-63
2021/11/04 07:03:25;;;;;;;7.47;2.22;;;;;;;9.76;100.00;99674.63;5047161;28;20044;-62
2021/11/04 07:05:57;;;;;;;4.53;1.95;;;;;;;9.77;100.00;99670.78;5043337;28;20032;-62
2021/11/04 07:08:24;;;;;;;4.50;1.90;;;;;;;9.76;100.00;99671.91;5046658;28;20043;-63
2021/11/04 07:11:00;;;;;;;4.25;1.70;;;;;;;9.81;100.00;99671.59;5036752;28;20140;-63
2021/11/04 07:13:29;;;;;;;5.20;2.08;;;;;;;9.74;100.00;99671.53;5044917;28;20592;-63
2021/11/04 07:15:59;;;;;;;4.28;1.73;;;;;;;9.76;100.00;99678.06;5033903;28;20036;-62
2021/11/04 07:18:25;;;;;;;4.35;1.75;;;;;;;9.78;100.00;99678.47;5034553;28;20119;-62
2021/11/04 07:21:05;;;;;;;6.15;2.17;;;;;;;9.81;100.00;99677.72;5042332;28;20028;-62
2021/11/04 07:23:44;;;;;;;5.15;2.15;;;;;;;9.77;100.00;99676.16;5044958;28;20101;-62
2021/11/04 07:26:10;;;;;;;5.28;2.10;;;;;;;9.80;100.00;99680.78;5042768;28;20501;-63
2021/11/04 07:28:38;;;;;;;5.47;2.13;;;;;;;9.81;100.00;99679.66;5037593;28;20021;-63
2021/11/04 07:31:08;;;;;;;6.47;2.63;;;;;;;9.82;100.00;99673.13;5038010;28;20195;-64
2021/11/04 07:33:34;;;;;;;4.03;2.08;;;;;;;9.86;100.00;99669.31;5036060;28;20078;-63
2021/11/04 07:36:02;;;;;;;6.05;2.22;;;;;;;9.84;100.00;99668.16;5025238;28;20056;-63
2021/11/04 07:38:31;;;;;;;6.07;1.95;;;;;;;9.86;100.00;99665.84;5043433;28;20083;-63
2021/11/04 07:40:57;;;;;;;5.93;2.50;;;;;;;9.91;100.00;99649.38;5039933;28;20034;-63
2021/11/04 07:43:24;;;;;;;6.07;3.30;;;;;;;9.86;100.00;99653.19;5041560;28;20044;-64
2021/11/04 07:45:50;;;;;;;6.65;2.47;;;;;;;9.92;100.00;99646.31;5037286;28;20570;-63
2021/11/04 07:48:15;;;;;;;5.60;2.00;;;;;;;9.91;100.00;99649.38;5044682;28;20041;-63
2021/11/04 07:50:41;;;;;;;6.38;2.10;;;;;;;9.92;100.00;99645.53;5040764;28;20044;-63
2021/11/04 07:53:06;;;;;;;4.70;2.00;;;;;;;9.92;100.00;99646.31;5043115;28;20041;-64
2021/11/04 07:55:32;;;;;;;3.15;1.58;;;;;;;9.96;100.00;99644.44;5049134;28;20013;-63
2021/11/04 07:57:57;;;;;;;4.32;1.73;;;;;;;10.03;100.00;99635.59;5050176;28;20063;-64
2021/11/04 08:00:28;;;;;;;4.45;2.13;;;;;;;10.04;100.00;99643.28;5041218;28;20045;-64
2021/11/04 08:02:53;;;;;;;4.22;1.80;;;;;;;10.05;100.00;99638.69;5042632;28;20104;-63
2021/11/04 08:05:19;;;;;;;4.50;1.70;;;;;;;10.08;100.00;99637.97;5048267;28;20597;-64
2021/11/04 08:07:45;;;;;;;4.82;2.33;;;;;;;10.09;100.00;99641.41;5041571;28;20487;-63
2021/11/04 08:10:14;;;;;;;4.13;2.30;;;;;;;10.10;100.00;99645.69;5043387;28;20024;-63
2021/11/04 08:12:40;;;;;;;7.60;2.13;;;;;;;10.07;100.00;99647.16;5043301;28;20025;-64
2021/11/04 08:15:08;;;;;;;5.20;2.13;;;;;;;10.04;100.00;99650.63;5041696;28;21016;-64
2021/11/04 08:17:34;;;;;;;4.13;1.88;;;;;;;10.04;100.00;99646.00;5047185;28;20120;-64
2021/11/04 08:19:59;;;;;;;5.63;2.55;;;;;;;10.06;100.00;99658.31;5042377;28;20171;-63
2021/11/04 08:22:25;;;;;;;4.70;1.95;;;;;;;10.03;100.00;99649.06;5049830;28;20033;-63
2021/11/04 08:24:51;;;;;;;4.38;2.25;;;;;;;10.10;100.00;99651.84;5050632;28;20044;-63
2021/11/04 08:27:17;;;;;;;8.40;2.85;;;;;;;10.09;100.00;99639.50;5040989;28;20140;-64
2021/11/04 08:29:43;;;;;;;4.35;2.53;;;;;;;10.15;100.00;99648.78;5034294;28;20037;-64
2021/11/04 08:32:11;;;;;;;9.38;2.58;;;;;;;10.09;100.00;99650.25;5043470;28;20090;-64
2021/11/04 08:34:37;;;;;;;4.55;2.30;;;;;;;10.16;100.00;99649.56;5048379;28;20045;-64
2021/11/04 08:37:03;;;;;;;4.97;2.08;;;;;;;10.18;100.00;99644.56;5044171;28;20043;-64
2021/11/04 08:39:29;;;;;;;6.30;2.17;;;;;;;10.18;100.00;99639.94;5049522;28;20578;-61
2021/11/04 08:41:56;;;;;;;4.35;2.03;;;;;;;10.23;100.00;99650.38;5046280;28;20041;-62
2021/11/04 08:44:22;;;;;;;5.88;2.22;;;;;;;10.21;100.00;99641.13;5049552;28;20033;-63
2021/11/04 08:46:48;;;;;;;7.28;2.20;;;;;;;10.20;100.00;99643.03;5044252;28;20029;-62
2021/11/04 08:49:14;;;;;;;6.00;2.45;;;;;;;10.21;100.00;99639.22;5042135;28;20048;-63
2021/11/04 08:51:40;;;;;;;4.07;1.90;;;;;;;10.20;100.00;99640.34;5042711;28;20054;-62
2021/11/04 08:54:07;;;;;;;3.50;1.90;;;;;;;10.24;100.00;99643.81;5047032;28;20117;-64
2021/11/04 08:56:37;;;;;;;5.07;2.05;;;;;;;10.21;100.00;99647.28;5043781;28;20049;-64
2021/11/04 08:59:04;;;;;;;2.75;1.65;;;;;;;10.22;100.00;99648.81;5042188;28;20746;-64
2021/11/04 09:01:33;;;;;;;6.32;2.35;;;;;;;10.24;100.00;99648.44;5029115;28;20530;-63
2021/11/04 09:03:58;;;;;;;5.32;1.98;;;;;;;10.30;100.00;99644.25;5043891;28;20395;-62
2021/11/04 09:06:24;;;;;;;5.13;2.20;;;;;;;10.24;100.00;99651.91;5041833;28;20033;-64
2021/11/04 09:08:50;;;;;;;5.03;2.45;;;;;;;10.21;100.00;99643.81;5042820;28;20048;-63
2021/11/04 09:11:15;;;;;;;4.18;2.08;;;;;;;10.23;100.00;99642.28;5042713;28;20037;-64
2021/11/04 09:13:42;;;;;;;6.28;2.65;;;;;;;10.27;100.00;99639.63;5043417;28;20590;-64
2021/11/04 09:16:07;;;;;;;5.70;2.47;;;;;;;10.26;100.00;99638.84;5042322;28;20923;-64
2021/11/04 09:18:33;;;;;;;5.35;2.28;;;;;;;10.31;100.00;99638.50;5048009;28;20033;-64
2021/11/04 09:20:58;;;;;;;3.95;1.98;;;;;;;10.35;100.00;99631.22;5041849;28;20032;-64
2021/11/04 09:23:24;;;;;;;6.55;2.55;;;;;;;10.33;100.00;99644.28;5044286;28;20040;-64
2021/11/04 09:25:49;;;;;;;6.95;2.30;;;;;;;10.32;100.00;99634.63;5042226;28;20033;-64
2021/11/04 09:28:15;;;;;;;6.18;2.95;;;;;;;10.35;100.00;99630.44;5046629;28;20033;-63
2021/11/04 09:30:42;;;;;;;4.47;2.28;;;;;;;10.36;100.00;99635.44;5045609;28;20119;-64
2021/11/04 09:33:09;;;;;;;6.07;2.75;;;;;;;10.41;100.00;99621.63;5035367;28;20037;-63
2021/11/04 09:35:36;;;;;;;7.55;2.20;;;;;;;10.45;100.00;99619.69;5041489;28;20510;-62
2021/11/04 09:38:05;;;;;;;5.00;2.13;;;;;;;10.46;100.00;99615.09;5042562;28;20579;-62
2021/11/04 09:40:32;;;;;;;4.57;2.47;;;;;;;10.48;100.00;99608.19;5042137;28;20048;-62
2021/11/04 09:42:58;;;;;;;9.05;2.55;;;;;;;10.45;100.00;99608.19;5041591;28;20039;-64
2021/11/04 09:45:28;;;;;;;7.55;2.63;;;;;;;10.43;100.00;99600.47;5041028;28;20039;-64
2021/11/04 09:47:54;;;;;;;7.72;2.72;;;;;;;10.46;100.00;99609.72;5036386;28;20041;-65
2021/11/04 09:50:21;;;;;;;8.80;2.40;;;;;;;10.47;100.00;99606.63;5038372;28;20040;-64
2021/11/04 09:52:53;;;;;;;7.15;2.72;;;;;;;10.56;100.00;99609.75;5039720;28;20403;-63
2021/11/04 09:55:21;;;;;;;4.82;2.15;;;;;;;10.56;100.00;99611.66;5024826;28;20041;-64
2021/11/04 09:57:47;;;;;;;4.80;2.22;;;;;;;10.58;100.00;99606.69;5039134;28;20039;-64
2021/11/04 10:00:14;;;;;;;6.72;3.15;;;;;;;10.58;100.00;99607.44;5034370;28;20036;-62
2021/11/04 10:02:43;;;;;;;5.65;2.22;;;;;;;10.62;100.00;99605.53;5044587;28;20044;-63
2021/11/04 10:05:11;;;;;;;4.90;2.28;;;;;;;10.67;100.00;99602.47;5030389;28;20036;-63
2021/11/04 10:07:45;;;;;;;4.25;2.20;;;;;;;10.62;100.00;99607.47;5034254;28;20450;-63
2021/11/04 10:10:12;;;;;;;4.78;2.28;;;;;;;10.60;100.00;99610.53;5022325;28;20534;-64
2021/11/04 10:13:15;;;;;;;6.90;3.20;;;;;;;10.57;100.00;99605.13;5040134;28;20078;-62
2021/11/04 10:15:42;;;;;;;6.43;2.38;;;;;;;10.62;100.00;99605.53;4987985;28;20111;-64
2021/11/04 10:18:21;;;;;;;7.35;2.22;;;;;;;10.61;100.00;99597.81;5025532;28;20044;-64
2021/11/04 10:20:59;;;;;;;5.53;2.83;;;;;;;10.62;100.00;99599.38;5039339;28;20033;-64
2021/11/04 10:23:27;;;;;;;12.15;2.55;;;;;;;10.69;100.00;99594.78;5043010;28;20021;-64
2021/11/04 10:26:14;;;;;;;4.32;2.08;;;;;;;10.69;100.00;99597.47;5035719;28;20033;-63
2021/11/04 10:28:45;;;;;;;4.45;1.98;;;;;;;10.71;100.00;99589.78;5036142;28;20056;-64
2021/11/04 10:31:13;;;;;;;8.52;2.78;;;;;;;10.76;100.00;99597.47;5041987;28;20484;-64
2021/11/04 10:33:41;;;;;;;5.80;2.28;;;;;;;10.80;100.00;99600.22;5048001;28;20089;-63
2021/11/04 10:36:15;;;;;;;6.50;2.67;;;;;;;10.80;100.00;99606.34;5043261;28;20033;-63
2021/11/04 10:38:49;;;;;;;9.13;3.08;;;;;;;10.86;100.00;99604.81;5027653;23;20095;-66
2021/11/04 10:41:35;;;;;;;8.07;2.85;;;;;;;10.88;100.00;99597.13;5008410;28;20074;-66
2021/11/04 10:44:13;;;;;;;6.38;2.75;;;;;;;10.82;100.00;99595.97;5006135;28;20088;-66
2021/11/04 10:46:51;;;;;;;12.80;3.90;;;;;;;10.88;100.00;99596.34;5001029;28;20433;-66
2021/11/04 10:49:19;;;;;;;7.18;2.58;;;;;;;10.92;100.00;99599.81;4985949;28;20129;-65
2021/11/04 10:51:54;;;;;;;6.97;2.70;;;;;;;10.87;100.00;99595.59;4988801;28;20456;-66
2021/11/04 10:54:19;;;;;;;9.70;2.75;;;;;;;10.87;100.00;99590.22;4985129;28;20042;-66
2021/11/04 10:56:50;;;;;;;7.07;2.65;;;;;;;10.88;100.00;99597.13;4983980;28;20048;-65
2021/11/04 10:59:17;;;;;;;9.30;3.08;;;;;;;10.88;100.00;99599.03;4983933;28;20047;-66
2021/11/04 11:01:51;;;;;;;7.38;2.60;;;;;;;10.86;100.00;99599.44;4978314;28;20046;-65
2021/11/04 11:04:19;;;;;;;6.97;2.75;;;;;;;10.87;100.00;99595.59;4980490;28;20032;-65
2021/11/04 11:06:52;;;;;;;6.85;2.90;;;;;;;10.80;100.00;99594.81;4988496;28;20034;-65
2021/11/04 11:09:26;;;;;;;7.05;2.80;;;;;;;10.92;100.00;99593.69;4986276;28;20113;-65
2021/11/04 11:11:54;;;;;;;6.30;2.67;;;;;;;10.91;100.00;99587.53;4985434;28;20443;-66
2021/11/04 11:14:24;;;;;;;8.07;3.25;;;;;;;10.88;100.00;99583.66;4987695;28;20054;-65
2021/11/04 11:16:54;;;;;;;7.78;3.00;;;;;;;10.88;100.00;99588.28;4991920;28;20026;-65
2021/11/04 11:19:27;;;;;;;7.57;2.50;;;;;;;10.94;100.00;99580.59;4989129;28;20527;-66
2021/11/04 11:21:53;;;;;;;10.05;3.20;;;;;;;10.95;100.00;99577.53;4992465;28;20030;-65
2021/11/04 11:24:29;;;;;;;7.25;2.33;;;;;;;10.88;100.00;99572.88;4993372;28;20104;-65
2021/11/04 11:26:56;;;;;;;8.30;2.72;;;;;;;10.97;100.00;99585.22;4987630;28;20374;-67
2021/11/04 11:29:23;;;;;;;9.02;2.83;;;;;;;10.92;100.00;99577.53;4982671;28;20041;-66